createdAt,value
2019-03-08T00:01:36.101Z,42.83
2019-03-08T00:04:10.235Z,45.48
2019-03-08T00:06:43.477Z,40.08
2019-03-08T00:09:18.182Z,38.95
2019-03-08T00:11:51.436Z,49.93
2019-03-08T00:14:25.196Z,41.90
2019-03-08T00:16:58.532Z,51.70
2019-03-08T00:19:31.887Z,48.50
2019-03-08T00:22:05.470Z,45.17
2019-03-08T00:24:38.880Z,52.75
2019-03-08T00:27:12.443Z,47.27
2019-03-08T00:29:46.129Z,48.48
2019-03-08T00:32:20.735Z,50.55
2019-03-08T00:34:54.160Z,56.77
2019-03-08T00:37:27.489Z,54.42
2019-03-08T00:40:00.968Z,50.20
2019-03-08T00:42:35.507Z,47.55
2019-03-08T00:45:14.096Z,47.17
2019-03-08T00:47:47.698Z,47.43
2019-03-08T00:50:21.489Z,52.27
2019-03-08T00:52:54.947Z,53.85
2019-03-08T00:55:28.382Z,63.95
2019-03-08T00:58:01.830Z,50.05
2019-03-08T01:00:35.212Z,53.87
2019-03-08T01:03:10.203Z,53.78
2019-03-08T01:05:43.911Z,46.10
2019-03-08T01:08:17.451Z,52.95
2019-03-08T01:10:51.152Z,55.20
2019-03-08T01:13:24.746Z,49.65
2019-03-08T01:16:03.151Z,59.75
2019-03-08T01:18:36.794Z,56.25
2019-03-08T01:21:11.802Z,53.70
2019-03-08T01:23:46.015Z,59.73
2019-03-08T01:26:20.209Z,54.80
2019-03-08T01:28:53.814Z,57.35
2019-03-08T01:31:28.401Z,62.40
2019-03-08T01:34:02.726Z,58.70
2019-03-08T01:36:37.838Z,67.70
2019-03-08T01:39:11.440Z,65.52
2019-03-08T01:41:45.213Z,58.33
2019-03-08T01:44:18.696Z,58.08
2019-03-08T01:46:53.482Z,50.73
2019-03-08T01:49:26.759Z,64.72
2019-03-08T01:54:56.346Z,59.08
2019-03-08T01:57:30.167Z,65.32
2019-03-08T02:00:03.425Z,42.27
2019-03-08T02:02:38.262Z,64.55
2019-03-08T02:05:11.666Z,45.55
2019-03-08T02:07:45.382Z,68.97
2019-03-08T02:10:21.808Z,69.30
2019-03-08T02:12:55.475Z,53.87
2019-03-08T02:15:32.165Z,35.65
2019-03-08T02:18:06.260Z,57.35
2019-03-08T02:20:42.548Z,64.82
2019-03-08T02:23:16.686Z,62.78
2019-03-08T02:25:50.200Z,62.67
2019-03-08T02:28:24.835Z,58.68
2019-03-08T02:30:58.456Z,62.93
2019-03-08T02:33:33.276Z,66.95
2019-03-08T02:36:06.767Z,57.35
2019-03-08T02:38:40.571Z,68.35
2019-03-08T02:41:14.472Z,68.55
2019-03-08T02:43:48.148Z,77.80
2019-03-08T02:46:22.059Z,79.75
2019-03-08T02:48:59.857Z,71.25
2019-03-08T02:51:33.379Z,72.37
2019-03-08T02:54:07.161Z,64.50
2019-03-08T02:56:40.473Z,78.00
2019-03-08T02:59:14.627Z,58.52
2019-03-08T03:01:52.477Z,67.95
2019-03-08T03:04:27.282Z,76.00
2019-03-08T03:07:01.073Z,70.12
2019-03-08T03:09:34.563Z,66.25
2019-03-08T03:12:08.000Z,62.50
2019-03-08T03:14:42.119Z,57.88
2019-03-08T03:17:15.673Z,70.40
2019-03-08T03:19:49.351Z,62.40
2019-03-08T03:22:22.802Z,58.17
2019-03-08T03:24:56.506Z,65.55
2019-03-08T03:27:30.730Z,62.13
2019-03-08T03:30:04.601Z,56.05
2019-03-08T03:32:38.092Z,48.63
2019-03-08T03:35:11.886Z,40.52
2019-03-08T03:37:45.691Z,33.63
2019-03-08T03:40:22.912Z,46.63
2019-03-08T03:42:56.231Z,66.60
2019-03-08T03:45:29.762Z,60.15
2019-03-08T03:48:03.362Z,61.20
2019-03-08T03:50:37.003Z,50.33
2019-03-08T03:53:10.361Z,56.10
2019-03-08T03:55:43.935Z,53.98
2019-03-08T03:58:17.248Z,49.45
2019-03-08T04:00:51.293Z,20.23
2019-03-08T04:03:24.864Z,54.88
2019-03-08T04:05:59.113Z,42.50
2019-03-08T04:08:33.235Z,53.28
2019-03-08T04:11:08.177Z,54.58
2019-03-08T04:13:41.517Z,57.00
2019-03-08T04:16:15.575Z,46.15
2019-03-08T04:18:48.872Z,32.85
2019-03-08T04:21:22.296Z,44.03
2019-03-08T04:23:55.760Z,43.35
2019-03-08T04:26:29.276Z,52.55
2019-03-08T04:29:02.544Z,52.62
2019-03-08T04:31:36.795Z,66.60
2019-03-08T04:34:10.321Z,54.23
2019-03-08T04:36:44.140Z,54.18
2019-03-08T04:39:17.849Z,62.53
2019-03-08T04:41:51.800Z,44.23
2019-03-08T04:44:25.090Z,44.40
2019-03-08T04:46:58.810Z,42.75
2019-03-08T04:49:32.280Z,40.80
2019-03-08T04:52:06.762Z,33.33
2019-03-08T04:54:40.799Z,57.43
2019-03-08T04:57:14.585Z,48.85
2019-03-08T04:59:49.051Z,39.85
2019-03-08T05:02:22.671Z,33.50
2019-03-08T05:04:56.083Z,45.63
2019-03-08T05:07:29.610Z,47.40
2019-03-08T05:10:02.832Z,54.18
2019-03-08T05:12:37.192Z,57.53
2019-03-08T05:15:10.701Z,62.55
2019-03-08T05:17:44.364Z,62.00
2019-03-08T05:20:18.794Z,62.98
2019-03-08T05:22:53.231Z,59.70
2019-03-08T05:25:26.798Z,57.48
2019-03-08T05:28:00.517Z,46.68
2019-03-08T05:30:34.151Z,54.05
2019-03-08T05:33:07.926Z,50.10
2019-03-08T05:35:42.174Z,55.50
2019-03-08T05:38:15.927Z,63.87
2019-03-08T05:40:49.647Z,55.05
2019-03-08T05:43:23.567Z,54.48
2019-03-08T05:45:57.152Z,152.68
2019-03-08T05:48:30.764Z,68.20
2019-03-08T05:51:04.234Z,62.58
2019-03-08T05:53:38.108Z,56.75
2019-03-08T05:56:11.680Z,56.20
2019-03-08T05:58:45.606Z,47.55
2019-03-08T06:01:19.005Z,55.25
2019-03-08T06:03:52.526Z,58.80
2019-03-08T06:06:26.192Z,52.80
2019-03-08T06:08:59.812Z,48.38
2019-03-08T06:11:33.184Z,39.60
2019-03-08T06:14:07.592Z,43.23
2019-03-08T06:16:41.374Z,39.67
2019-03-08T06:19:15.104Z,22.10
2019-03-08T06:21:48.668Z,44.30
2019-03-08T06:24:22.380Z,38.15
2019-03-08T06:26:55.904Z,40.03
2019-03-08T06:29:30.151Z,32.35
2019-03-08T06:32:03.510Z,40.25
2019-03-08T06:34:37.447Z,45.17
2019-03-08T06:37:11.164Z,37.08
2019-03-08T06:39:44.677Z,37.20
2019-03-08T06:42:18.001Z,39.08
2019-03-08T06:44:52.430Z,46.70
2019-03-08T06:47:25.663Z,36.77
2019-03-08T06:49:59.165Z,41.83
2019-03-08T06:52:32.662Z,45.63
2019-03-08T06:55:06.764Z,48.60
2019-03-08T06:57:40.383Z,56.33
2019-03-08T07:00:39.965Z,54.95
2019-03-08T07:03:13.659Z,51.30
2019-03-08T07:05:47.116Z,57.85
2019-03-08T07:08:20.664Z,52.08
2019-03-08T07:10:54.582Z,57.33
2019-03-08T07:13:28.234Z,43.73
2019-03-08T07:16:01.807Z,42.83
2019-03-08T07:18:35.149Z,44.13
2019-03-08T07:21:22.404Z,44.90
2019-03-08T07:24:12.049Z,38.42
2019-03-08T07:26:46.759Z,41.55
2019-03-08T07:29:21.265Z,58.05
2019-03-08T07:31:56.077Z,48.78
2019-03-08T07:34:33.048Z,56.20
2019-03-08T07:37:12.084Z,53.70
2019-03-08T07:39:52.372Z,54.33
2019-03-08T07:42:44.985Z,44.77
2019-03-08T07:45:34.963Z,43.85
2019-03-08T07:48:24.770Z,37.48
2019-03-08T07:50:59.189Z,49.42
2019-03-08T07:53:50.961Z,49.40
2019-03-08T07:56:43.300Z,51.23
2019-03-08T07:59:36.537Z,57.73
2019-03-08T08:02:14.739Z,57.20
2019-03-08T08:04:49.756Z,44.38
2019-03-08T08:07:31.677Z,43.58
2019-03-08T08:10:16.676Z,40.85
2019-03-08T08:13:04.373Z,46.98
2019-03-08T08:15:55.324Z,42.08
2019-03-08T08:18:35.490Z,53.28
2019-03-08T08:21:26.241Z,44.70
2019-03-08T08:24:00.823Z,55.40
2019-03-08T08:26:41.743Z,58.87
2019-03-08T08:29:35.205Z,65.62
2019-03-08T08:32:08.947Z,66.47
2019-03-08T08:34:46.724Z,62.53
2019-03-08T08:37:24.614Z,64.17
2019-03-08T08:39:59.112Z,73.20
2019-03-08T08:42:38.325Z,56.02
2019-03-08T08:45:14.344Z,55.75
2019-03-08T08:47:52.052Z,51.40
2019-03-08T08:50:33.086Z,59.85
2019-03-08T08:53:23.804Z,69.77
2019-03-08T08:56:03.302Z,72.20
2019-03-08T08:58:41.015Z,79.03
2019-03-08T09:01:28.086Z,77.17
2019-03-08T09:04:05.975Z,77.20
2019-03-08T09:06:44.227Z,94.17
2019-03-08T09:09:19.351Z,70.57
2019-03-08T09:12:01.730Z,77.50
2019-03-08T09:17:15.740Z,76.45
2019-03-08T09:19:50.992Z,86.63
2019-03-08T09:22:25.571Z,93.92
2019-03-08T09:25:00.335Z,98.27
2019-03-08T09:27:52.774Z,76.62
2019-03-08T09:30:27.756Z,49.38
2019-03-08T09:33:02.348Z,77.12
2019-03-08T09:35:37.102Z,86.25
2019-03-08T09:38:24.076Z,82.57
2019-03-08T09:41:02.507Z,77.80
2019-03-08T09:43:39.909Z,69.17
2019-03-08T09:46:18.924Z,86.85
2019-03-08T09:49:11.982Z,85.35
2019-03-08T09:51:46.926Z,86.45
2019-03-08T09:54:24.498Z,87.20
2019-03-08T09:56:59.299Z,75.42
2019-03-08T09:59:37.679Z,78.97
2019-03-08T10:02:18.849Z,77.72
2019-03-08T10:04:53.436Z,94.17
2019-03-08T10:07:28.352Z,88.78
2019-03-08T10:10:15.540Z,101.58
2019-03-08T10:12:59.237Z,105.97
2019-03-08T10:15:33.884Z,96.08
2019-03-08T10:18:26.733Z,93.42
2019-03-08T10:21:01.202Z,94.13
2019-03-08T10:23:44.951Z,86.82
2019-03-08T10:26:19.914Z,95.53
2019-03-08T10:28:57.935Z,81.82
2019-03-08T10:31:48.603Z,84.20
2019-03-08T10:34:23.367Z,87.72
2019-03-08T10:37:07.867Z,79.30
2019-03-08T10:39:59.214Z,83.78
2019-03-08T10:42:34.724Z,76.77
2019-03-08T10:45:11.152Z,81.55
2019-03-08T10:47:45.766Z,77.45
2019-03-08T10:50:23.820Z,75.05
2019-03-08T10:53:01.461Z,78.70
2019-03-08T10:55:52.267Z,85.97
2019-03-08T10:58:29.798Z,88.45
2019-03-08T11:01:04.900Z,85.00
2019-03-08T11:03:54.644Z,92.20
2019-03-08T11:06:30.774Z,83.22
2019-03-08T11:09:21.135Z,88.92
2019-03-08T11:12:11.909Z,84.05
2019-03-08T11:15:02.509Z,88.22
2019-03-08T11:17:50.343Z,87.82
2019-03-08T11:20:22.919Z,94.72
2019-03-08T11:22:59.003Z,96.12
2019-03-08T11:25:35.279Z,92.97
2019-03-08T11:28:25.804Z,90.97
2019-03-08T11:31:16.219Z,101.55
2019-03-08T11:33:57.103Z,98.12
2019-03-08T11:36:31.861Z,102.00
2019-03-08T11:39:22.479Z,89.10
2019-03-08T11:41:56.963Z,96.70
2019-03-08T11:44:32.020Z,97.53
2019-03-08T11:47:10.025Z,94.47
2019-03-08T11:49:47.837Z,103.20
2019-03-08T11:52:25.371Z,103.05
2019-03-08T11:55:06.209Z,93.58
2019-03-08T11:57:41.313Z,103.25
2019-03-08T12:00:22.902Z,100.87
2019-03-08T12:03:01.517Z,104.43
2019-03-08T12:05:49.859Z,112.12
2019-03-08T12:08:28.123Z,99.58
2019-03-08T12:11:11.598Z,98.82
2019-03-08T12:13:46.373Z,104.58
2019-03-08T12:16:37.416Z,99.58
2019-03-08T12:19:13.131Z,112.50
2019-03-08T12:21:54.031Z,94.15
2019-03-08T12:24:32.004Z,87.75
2019-03-08T12:27:09.701Z,89.55
2019-03-08T12:30:04.113Z,97.75
2019-03-08T12:32:54.000Z,101.80
2019-03-08T12:35:31.949Z,100.97
2019-03-08T12:38:06.903Z,101.40
2019-03-08T12:40:43.784Z,96.60
2019-03-08T12:43:33.529Z,99.60
2019-03-08T12:46:20.483Z,100.85
2019-03-08T12:49:04.488Z,107.05
2019-03-08T12:51:57.299Z,97.72
2019-03-08T12:54:48.308Z,92.40
2019-03-08T12:57:23.175Z,93.35
2019-03-08T13:00:14.067Z,95.50
2019-03-08T13:02:52.062Z,95.20
2019-03-08T13:05:44.430Z,109.65
2019-03-08T13:08:28.629Z,92.17
2019-03-08T13:11:02.007Z,102.53
2019-03-08T13:13:36.140Z,101.72
2019-03-08T13:16:09.601Z,97.72
2019-03-08T13:18:43.048Z,90.50
2019-03-08T13:21:16.374Z,96.92
2019-03-08T13:23:50.195Z,102.80
2019-03-08T13:26:23.454Z,102.00
2019-03-08T13:28:57.377Z,97.33
2019-03-08T13:31:30.662Z,98.45
2019-03-08T13:34:04.923Z,106.67
2019-03-08T13:36:38.170Z,97.40
2019-03-08T13:39:12.256Z,101.35
2019-03-08T13:41:45.540Z,110.28
2019-03-08T13:44:19.202Z,99.55
2019-03-08T13:46:52.474Z,103.72
2019-03-08T13:49:26.711Z,104.32
2019-03-08T13:52:00.036Z,100.45
2019-03-08T13:54:33.739Z,103.30
2019-03-08T13:57:07.043Z,101.20
2019-03-08T13:59:41.004Z,104.65
2019-03-08T14:02:14.243Z,114.25
2019-03-08T14:04:48.272Z,108.80
2019-03-08T14:07:21.523Z,115.32
2019-03-08T14:09:54.907Z,116.15
2019-03-08T14:12:28.170Z,116.05
2019-03-08T14:15:02.125Z,109.52
2019-03-08T14:17:36.660Z,125.35
2019-03-08T14:20:24.656Z,109.27
2019-03-08T14:22:58.207Z,123.05
2019-03-08T14:25:32.941Z,122.07
2019-03-08T14:28:06.353Z,118.82
2019-03-08T14:30:44.781Z,116.70
2019-03-08T14:33:18.203Z,117.35
2019-03-08T14:35:52.113Z,118.65
2019-03-08T14:38:27.938Z,102.85
2019-03-08T14:41:01.921Z,120.33
2019-03-08T14:43:52.485Z,117.37
2019-03-08T14:46:36.524Z,122.42
2019-03-08T14:49:09.928Z,116.17
2019-03-08T14:51:44.772Z,118.15
2019-03-08T14:54:18.514Z,120.75
2019-03-08T14:56:55.042Z,105.92
2019-03-08T14:59:29.603Z,121.30
2019-03-08T15:02:03.325Z,149.32
2019-03-08T15:04:38.291Z,120.15
2019-03-08T15:07:12.163Z,121.07
2019-03-08T15:09:46.326Z,120.92
2019-03-08T15:12:20.295Z,112.85
2019-03-08T15:14:54.196Z,121.53
2019-03-08T15:17:29.115Z,117.50
2019-03-08T15:20:03.147Z,119.85
2019-03-08T15:22:38.050Z,123.35
2019-03-08T15:25:14.101Z,128.70
2019-03-08T15:27:47.835Z,125.05
2019-03-08T15:30:21.966Z,124.92
2019-03-08T15:32:55.761Z,134.43
2019-03-08T15:35:31.355Z,114.75
2019-03-08T15:38:04.732Z,121.37
2019-03-08T15:40:38.633Z,129.05
2019-03-08T15:43:13.751Z,130.05
2019-03-08T15:45:47.260Z,136.80
2019-03-08T15:48:20.634Z,130.97
2019-03-08T15:50:54.444Z,133.00
2019-03-08T15:53:28.224Z,137.45
2019-03-08T15:56:01.688Z,122.72
2019-03-08T15:58:35.025Z,140.20
2019-03-08T16:01:09.004Z,128.00
2019-03-08T16:03:42.705Z,139.70
2019-03-08T16:06:16.561Z,132.63
2019-03-08T16:08:51.496Z,141.85
2019-03-08T16:11:24.897Z,128.87
2019-03-08T16:14:08.246Z,143.05
2019-03-08T16:16:34.045Z,137.90
2019-03-08T16:19:07.403Z,136.52
2019-03-08T16:21:41.025Z,132.12
2019-03-08T16:24:14.517Z,140.07
2019-03-08T16:26:48.164Z,125.07
2019-03-08T16:29:21.547Z,124.97
2019-03-08T16:31:56.217Z,126.00
2019-03-08T16:34:29.579Z,114.80
2019-03-08T16:37:06.969Z,111.97
2019-03-08T16:39:49.917Z,122.00
2019-03-08T16:42:30.595Z,104.35
2019-03-08T16:45:05.675Z,114.57
2019-03-08T16:47:43.840Z,114.40
2019-03-08T16:50:33.031Z,113.57
2019-03-08T16:53:07.679Z,110.90
2019-03-08T16:55:40.402Z,112.40
2019-03-08T16:58:24.003Z,113.28
2019-03-08T17:00:58.908Z,107.65
2019-03-08T17:03:33.865Z,105.20
2019-03-08T17:06:26.828Z,105.55
2019-03-08T17:09:13.619Z,112.83
2019-03-08T17:12:04.724Z,100.87
2019-03-08T17:14:48.543Z,112.25
2019-03-08T17:17:27.342Z,110.37
2019-03-08T17:20:02.335Z,105.10
2019-03-08T17:22:46.180Z,104.58
2019-03-08T17:25:23.617Z,99.72
2019-03-08T17:28:03.333Z,85.25
2019-03-08T17:30:53.261Z,92.67
2019-03-08T17:33:34.184Z,88.45
2019-03-08T17:36:11.878Z,89.95
2019-03-08T17:38:46.411Z,88.07
2019-03-08T17:41:24.178Z,84.95
2019-03-08T17:44:14.877Z,75.97
2019-03-08T17:46:56.143Z,74.60
2019-03-08T17:49:36.872Z,86.97
2019-03-08T17:52:23.535Z,93.17
2019-03-08T17:54:58.038Z,105.07
2019-03-08T17:57:48.440Z,113.75
2019-03-08T18:00:33.147Z,107.03
2019-03-08T18:03:08.377Z,110.17
2019-03-08T18:05:55.168Z,124.85
2019-03-08T18:08:35.958Z,113.57
2019-03-08T18:11:14.113Z,121.25
2019-03-08T18:13:51.910Z,117.65
2019-03-08T18:16:26.779Z,110.50
2019-03-08T18:19:04.656Z,117.45
2019-03-08T18:21:39.442Z,121.90
2019-03-08T18:24:30.915Z,124.12
2019-03-08T18:27:11.806Z,150.63
2019-03-08T18:29:58.830Z,153.70
2019-03-08T18:32:33.719Z,154.63
2019-03-08T18:35:22.037Z,161.20
2019-03-08T18:38:03.046Z,134.20
2019-03-08T18:40:37.600Z,141.00
2019-03-08T18:43:12.652Z,120.08
2019-03-08T18:46:05.858Z,111.68
2019-03-08T18:48:41.067Z,87.75
2019-03-08T18:51:28.647Z,90.05
2019-03-08T18:54:06.360Z,83.33
2019-03-08T18:56:52.806Z,74.80
2019-03-08T18:59:40.235Z,73.15
2019-03-08T19:02:15.340Z,81.63
2019-03-08T19:04:53.632Z,82.70
2019-03-08T19:07:28.600Z,98.97
2019-03-08T19:10:13.432Z,137.03
2019-03-08T19:13:00.837Z,175.42
2019-03-08T19:15:41.854Z,189.47
2019-03-08T19:18:25.492Z,200.97
2019-03-08T19:21:06.656Z,196.53
2019-03-08T19:23:44.119Z,205.62
2019-03-08T19:26:22.108Z,191.28
2019-03-08T19:29:12.923Z,178.38
2019-03-08T19:31:50.364Z,188.52
2019-03-08T19:34:36.429Z,203.07
2019-03-08T19:37:26.249Z,243.40
2019-03-08T19:40:06.509Z,249.85
2019-03-08T19:42:56.084Z,247.15
2019-03-08T19:45:37.434Z,269.37
2019-03-08T19:48:12.282Z,305.35
2019-03-08T19:51:04.239Z,285.80
2019-03-08T19:53:54.483Z,279.87
2019-03-08T19:56:29.462Z,254.43
2019-03-08T19:59:20.637Z,235.15
2019-03-08T20:02:01.805Z,223.95
2019-03-08T20:04:41.189Z,216.00
2019-03-08T20:07:19.595Z,234.80
2019-03-08T20:09:57.400Z,218.45
2019-03-08T20:12:32.273Z,210.63
2019-03-08T20:15:07.433Z,217.25
2019-03-08T20:17:42.653Z,212.17
2019-03-08T20:20:20.652Z,210.78
2019-03-08T20:23:11.503Z,203.05
2019-03-08T20:25:46.090Z,189.22
2019-03-08T20:28:24.136Z,200.68
2019-03-08T20:31:01.365Z,176.42
2019-03-08T20:33:39.069Z,188.25
2019-03-08T20:36:25.460Z,166.45
2019-03-08T20:39:12.580Z,168.28
2019-03-08T20:41:53.246Z,169.75
2019-03-08T20:44:30.937Z,172.15
2019-03-08T20:47:11.071Z,143.78
2019-03-08T20:49:44.847Z,156.07
2019-03-08T20:52:18.097Z,133.07
2019-03-08T20:54:52.054Z,131.63
2019-03-08T20:57:25.394Z,115.70
2019-03-08T20:59:58.905Z,141.45
2019-03-08T21:02:32.370Z,137.28
2019-03-08T21:05:06.930Z,143.07
2019-03-08T21:07:40.287Z,137.82
2019-03-08T21:10:17.709Z,141.47
2019-03-08T21:12:51.455Z,146.20
2019-03-08T21:15:25.697Z,147.50
2019-03-08T21:17:59.578Z,151.22
2019-03-08T21:20:33.183Z,164.70
2019-03-08T21:23:06.795Z,144.77
2019-03-08T21:25:40.538Z,151.32
2019-03-08T21:28:14.535Z,130.12
2019-03-08T21:30:48.296Z,127.32
2019-03-08T21:33:21.770Z,118.75
2019-03-08T21:35:55.656Z,109.12
2019-03-08T21:38:30.918Z,120.77
2019-03-08T21:41:04.863Z,118.22
2019-03-08T21:43:38.668Z,112.77
2019-03-08T21:46:12.596Z,126.90
2019-03-08T21:48:46.554Z,132.95
2019-03-08T21:51:20.054Z,131.05
2019-03-08T21:53:53.848Z,119.62
2019-03-08T21:56:27.606Z,118.02
2019-03-08T21:59:01.008Z,87.70
2019-03-08T22:01:34.410Z,107.63
2019-03-08T22:04:09.235Z,88.42
2019-03-08T22:06:43.083Z,84.95
2019-03-08T22:09:20.845Z,83.95
2019-03-08T22:11:55.075Z,71.28
2019-03-08T22:14:28.652Z,76.62
2019-03-08T22:17:02.864Z,77.03
2019-03-08T22:19:36.113Z,71.97
2019-03-08T22:22:10.293Z,65.10
2019-03-08T22:24:43.941Z,71.22
2019-03-08T22:27:17.483Z,58.42
2019-03-08T22:29:50.999Z,59.65
2019-03-08T22:32:24.304Z,49.05
2019-03-08T22:34:57.691Z,50.40
2019-03-08T22:37:31.824Z,57.15
2019-03-08T22:40:05.467Z,49.20
2019-03-08T22:42:40.044Z,52.10
2019-03-08T22:45:14.581Z,54.18
2019-03-08T22:47:48.521Z,48.70
2019-03-08T22:50:22.022Z,61.48
2019-03-08T22:52:57.243Z,59.93
2019-03-08T22:55:30.623Z,56.50
2019-03-08T22:58:04.579Z,67.90
2019-03-08T23:01:02.776Z,68.47
2019-03-08T23:03:37.874Z,61.10
2019-03-08T23:06:11.639Z,62.93
2019-03-08T23:08:45.634Z,68.05
2019-03-08T23:11:18.924Z,77.15
2019-03-08T23:13:52.694Z,65.67
2019-03-08T23:16:26.346Z,65.92
2019-03-08T23:19:00.249Z,73.97
2019-03-08T23:21:34.019Z,69.15
2019-03-08T23:24:07.657Z,74.65
2019-03-08T23:26:42.851Z,68.50
2019-03-08T23:29:17.872Z,69.67
2019-03-08T23:31:52.428Z,64.70
2019-03-08T23:34:25.827Z,59.50
2019-03-08T23:36:59.008Z,59.90
2019-03-08T23:39:32.580Z,67.95
2019-03-08T23:42:06.646Z,62.67
2019-03-08T23:44:40.150Z,62.93
2019-03-08T23:47:14.290Z,56.02
2019-03-08T23:49:48.668Z,55.92
2019-03-08T23:52:22.654Z,58.10
2019-03-08T23:54:56.372Z,57.30
2019-03-08T23:57:30.076Z,66.37
